Time;durP1;ratioP1;P1;durP2;ratioP2;P2;SDS_P1;SDS_P2;PMS_P1;PMS_P2;Temp;Humidity;BMP_temperature;BMP_pressure;BME280_temperature;BME280_humidity;BME280_pressure;Samples;Min_cycle;Max_cycle;Signal;HPM_P1;HPM_P2
2022/04/02 00:02:40;;;;;;;6.82;5.95;;;3.00;99.90;;;;;;5044595;28;20333;-75
2022/04/02 00:05:28;;;;;;;8.52;6.50;;;3.00;99.90;;;;;;5047272;28;20684;-76
2022/04/02 00:08:13;;;;;;;6.72;5.57;;;3.00;99.90;;;;;;5045489;28;20243;-74
2022/04/02 00:10:59;;;;;;;8.23;5.70;;;3.00;99.90;;;;;;5042009;28;20239;-75
2022/04/02 00:13:45;;;;;;;7.85;5.88;;;3.00;99.90;;;;;;5043916;28;20294;-75
2022/04/02 00:16:31;;;;;;;7.20;5.82;;;3.00;99.90;;;;;;5044887;28;20200;-75
2022/04/02 00:19:16;;;;;;;6.47;5.70;;;3.00;99.90;;;;;;5041067;28;20231;-76
2022/04/02 00:22:04;;;;;;;9.60;6.10;;;3.10;99.90;;;;;;5044581;28;20206;-74
2022/04/02 00:24:50;;;;;;;7.63;6.00;;;3.00;99.90;;;;;;5044577;28;20219;-76
2022/04/02 00:27:35;;;;;;;8.65;6.30;;;2.90;99.90;;;;;;5045045;28;20332;-75
2022/04/02 00:30:21;;;;;;;7.10;6.35;;;2.90;99.90;;;;;;5041860;28;20719;-76
2022/04/02 00:33:06;;;;;;;6.88;5.95;;;2.90;99.90;;;;;;5046865;28;20210;-74
2022/04/02 00:35:53;;;;;;;7.50;6.68;;;2.90;99.90;;;;;;5040922;28;20215;-76
2022/04/02 00:38:40;;;;;;;7.38;6.68;;;2.90;99.90;;;;;;5041083;28;20370;-73
2022/04/02 00:41:26;;;;;;;8.57;6.80;;;2.90;99.90;;;;;;5042861;28;20286;-75
2022/04/02 00:44:13;;;;;;;8.57;6.40;;;3.00;99.90;;;;;;5046273;28;20701;-75
2022/04/02 00:46:58;;;;;;;9.25;6.63;;;3.00;99.90;;;;;;5047762;28;20223;-76
2022/04/02 00:49:46;;;;;;;7.05;6.35;;;2.90;99.90;;;;;;5038572;28;20219;-76
2022/04/02 00:52:31;;;;;;;6.70;6.00;;;2.80;99.90;;;;;;5045358;28;20319;-76
2022/04/02 00:55:19;;;;;;;6.75;5.93;;;2.90;99.90;;;;;;5044236;28;20240;-75
2022/04/02 00:58:07;;;;;;;9.43;6.35;;;2.90;99.90;;;;;;5043419;28;20218;-75
2022/04/02 01:00:53;;;;;;;7.30;6.00;;;3.00;99.90;;;;;;5045637;28;20287;-75
2022/04/02 01:03:39;;;;;;;6.70;5.32;;;3.00;99.90;;;;;;5044970;28;20215;-75
2022/04/02 01:06:24;;;;;;;5.40;4.65;;;3.00;99.90;;;;;;5044841;28;20537;-73
2022/04/02 01:09:10;;;;;;;6.72;5.10;;;3.00;99.90;;;;;;5044143;28;20652;-76
2022/04/02 01:11:57;;;;;;;5.85;4.88;;;2.90;99.90;;;;;;5049373;28;20219;-76
2022/04/02 01:14:43;;;;;;;6.68;4.90;;;2.90;99.90;;;;;;5049802;28;20566;-76
2022/04/02 01:17:29;;;;;;;5.47;4.95;;;2.90;99.90;;;;;;5047361;28;20257;-75
2022/04/02 01:20:16;;;;;;;9.40;5.30;;;2.90;99.90;;;;;;5048592;28;20247;-76
2022/04/02 01:23:04;;;;;;;5.63;5.00;;;2.90;99.90;;;;;;5048163;28;20206;-74
2022/04/02 01:25:49;;;;;;;7.65;5.05;;;2.90;99.90;;;;;;5046846;28;20275;-75
2022/04/02 01:28:35;;;;;;;5.97;4.97;;;2.90;99.90;;;;;;5047042;28;20217;-75
2022/04/02 01:31:21;;;;;;;6.18;5.15;;;2.90;99.90;;;;;;5048629;28;20203;-75
2022/04/02 01:34:07;;;;;;;5.90;4.70;;;2.90;99.90;;;;;;5047941;28;20755;-76
2022/04/02 01:36:53;;;;;;;5.22;4.70;;;2.90;99.90;;;;;;5047524;28;21813;-74
2022/04/02 01:39:40;;;;;;;6.00;5.03;;;2.80;99.90;;;;;;5046173;28;20226;-76
2022/04/02 01:42:26;;;;;;;5.90;5.15;;;2.90;99.90;;;;;;5048431;28;20204;-76
2022/04/02 01:45:12;;;;;;;4.85;4.38;;;2.90;99.90;;;;;;5047751;28;20208;-76
2022/04/02 01:47:57;;;;;;;5.10;4.60;;;2.80;99.90;;;;;;5043957;28;20826;-76
2022/04/02 01:50:43;;;;;;;6.93;3.90;;;2.80;99.90;;;;;;5046485;28;20469;-73
2022/04/02 01:53:30;;;;;;;5.05;3.88;;;2.90;99.90;;;;;;5049511;28;20227;-75
2022/04/02 01:56:17;;;;;;;5.70;3.80;;;2.90;99.90;;;;;;5051250;28;20224;-76
2022/04/02 01:59:03;;;;;;;8.32;4.47;;;3.00;99.90;;;;;;5044331;28;20302;-75
2022/04/02 02:01:49;;;;;;;9.77;4.00;;;3.00;99.90;;;;;;5049124;28;20285;-76
2022/04/02 02:04:34;;;;;;;4.25;3.85;;;3.00;99.90;;;;;;5047476;28;20202;-76
2022/04/02 02:07:20;;;;;;;6.32;3.67;;;3.10;99.90;;;;;;5041266;28;20662;-74
2022/04/02 02:10:06;;;;;;;4.38;3.97;;;3.20;99.90;;;;;;5046042;28;20255;-76
2022/04/02 02:12:53;;;;;;;4.00;3.60;;;3.20;99.90;;;;;;5045405;28;22794;-74
2022/04/02 02:15:39;;;;;;;5.43;4.32;;;3.10;99.90;;;;;;5048789;28;20196;-72
2022/04/02 02:18:24;;;;;;;5.05;3.80;;;3.10;99.90;;;;;;5044692;28;20245;-75
2022/04/02 02:21:10;;;;;;;4.60;3.83;;;3.10;99.90;;;;;;5048224;28;20380;-75
2022/04/02 02:23:56;;;;;;;4.30;3.90;;;3.10;99.90;;;;;;5047581;28;20206;-74
2022/04/02 02:26:42;;;;;;;7.13;3.55;;;3.10;99.90;;;;;;5043470;28;20672;-76
2022/04/02 02:29:29;;;;;;;4.78;3.88;;;3.00;99.90;;;;;;5046365;28;20224;-74
2022/04/02 02:32:14;;;;;;;6.93;4.35;;;3.00;99.90;;;;;;5048726;28;20202;-76
2022/04/02 02:38:05;;;;;;;4.47;3.40;;;3.00;99.90;;;;;;5042777;28;20300;-76
2022/04/02 02:40:52;;;;;;;5.03;3.63;;;3.00;99.90;;;;;;5046806;28;20712;-75
2022/04/02 02:43:38;;;;;;;3.97;3.40;;;2.90;99.90;;;;;;5042206;28;20195;-76
2022/04/02 02:46:25;;;;;;;4.60;3.70;;;3.00;99.90;;;;;;5044729;28;20206;-76
2022/04/02 02:49:10;;;;;;;4.53;4.13;;;3.00;99.90;;;;;;5047946;28;20208;-76
2022/04/02 02:51:56;;;;;;;4.60;3.70;;;2.90;99.90;;;;;;5045079;28;20243;-76
2022/04/02 02:54:42;;;;;;;4.47;3.80;;;2.80;99.90;;;;;;5047668;28;20695;-74
2022/04/02 02:57:28;;;;;;;3.97;3.45;;;2.90;99.90;;;;;;5043043;28;20578;-76
2022/04/02 03:00:15;;;;;;;4.43;3.75;;;2.90;99.90;;;;;;5044001;28;20249;-73
2022/04/02 03:03:03;;;;;;;4.32;3.53;;;3.00;99.90;;;;;;5046146;28;20534;-73
2022/04/02 03:05:50;;;;;;;4.43;3.30;;;2.90;99.90;;;;;;5043855;28;20202;-76
2022/04/02 03:08:35;;;;;;;4.53;3.65;;;3.00;99.90;;;;;;5048271;28;20249;-76
2022/04/02 03:11:21;;;;;;;4.22;3.83;;;3.00;99.90;;;;;;5046338;28;20289;-76
2022/04/02 03:14:06;;;;;;;3.90;3.40;;;2.90;99.90;;;;;;5044673;28;20572;-76
2022/04/02 03:16:52;;;;;;;3.28;2.85;;;2.80;99.90;;;;;;5040034;28;20202;-76
2022/04/02 03:19:39;;;;;;;3.97;3.00;;;2.80;99.90;;;;;;5045794;28;20237;-76
2022/04/02 03:22:26;;;;;;;3.65;3.20;;;2.90;99.90;;;;;;5046391;28;20337;-76
2022/04/02 03:25:14;;;;;;;6.10;3.30;;;2.80;99.90;;;;;;5046731;28;20701;-74
2022/04/02 03:28:00;;;;;;;3.25;2.95;;;2.90;99.90;;;;;;5043501;28;20337;-76
2022/04/02 03:30:46;;;;;;;5.10;2.97;;;2.90;99.90;;;;;;5041925;28;20342;-75
2022/04/02 03:33:32;;;;;;;4.10;2.90;;;2.80;99.90;;;;;;5045810;28;20197;-76
2022/04/02 03:36:19;;;;;;;3.45;3.10;;;2.90;99.90;;;;;;5041833;28;20326;-76
2022/04/02 03:39:05;;;;;;;3.88;3.20;;;2.90;99.90;;;;;;5046549;28;20219;-75
2022/04/02 03:41:53;;;;;;;3.42;3.10;;;2.90;99.90;;;;;;5044869;28;20265;-76
2022/04/02 03:44:38;;;;;;;3.13;2.80;;;2.90;99.90;;;;;;5045069;28;20939;-75
2022/04/02 03:47:24;;;;;;;3.45;3.15;;;2.90;99.90;;;;;;5044301;28;20309;-74
2022/04/02 03:50:10;;;;;;;5.20;3.40;;;2.90;99.90;;;;;;5048344;28;20261;-76
2022/04/02 03:52:57;;;;;;;5.18;3.72;;;3.00;99.90;;;;;;5047634;28;20200;-75
2022/04/02 03:55:43;;;;;;;3.78;2.80;;;3.00;99.90;;;;;;5043712;28;20196;-76
2022/04/02 03:58:28;;;;;;;3.60;2.70;;;2.90;99.90;;;;;;5044794;28;20293;-74
2022/04/02 04:01:14;;;;;;;5.05;2.80;;;2.80;99.90;;;;;;5042514;28;20283;-76
2022/04/02 04:04:00;;;;;;;3.22;2.50;;;2.70;99.90;;;;;;5046704;28;20204;-76
2022/04/02 04:06:47;;;;;;;2.80;2.50;;;2.70;99.90;;;;;;5040543;28;20284;-76
2022/04/02 04:09:36;;;;;;;3.80;3.00;;;2.70;99.90;;;;;;5044556;28;20741;-76
2022/04/02 04:12:21;;;;;;;3.60;3.22;;;2.70;99.90;;;;;;5046747;28;20587;-75
2022/04/02 04:15:07;;;;;;;4.25;3.35;;;2.60;99.90;;;;;;5041226;28;20275;-76
2022/04/02 04:17:53;;;;;;;3.47;2.80;;;2.60;99.90;;;;;;5050158;28;20202;-76
2022/04/02 04:20:39;;;;;;;3.20;2.40;;;2.60;99.90;;;;;;5047798;28;20220;-74
2022/04/02 04:23:25;;;;;;;4.45;2.85;;;2.70;99.90;;;;;;5048549;28;20678;-76
2022/04/02 04:26:13;;;;;;;4.30;3.42;;;2.70;99.90;;;;;;5041974;28;20256;-75
2022/04/02 04:28:59;;;;;;;3.78;3.38;;;2.70;99.90;;;;;;5045336;28;20202;-75
2022/04/02 04:31:44;;;;;;;6.20;3.83;;;2.60;99.90;;;;;;5047144;28;20570;-76
2022/04/02 04:34:30;;;;;;;3.95;3.38;;;2.70;99.90;;;;;;5044042;28;20216;-76
2022/04/02 04:37:15;;;;;;;4.07;3.45;;;2.70;99.90;;;;;;5042313;28;20272;-75
2022/04/02 04:40:01;;;;;;;5.63;3.13;;;2.70;99.90;;;;;;5047050;28;20241;-76
2022/04/02 04:42:48;;;;;;;5.60;2.90;;;2.70;99.90;;;;;;5050931;28;20336;-74
2022/04/02 04:45:34;;;;;;;4.00;3.38;;;2.70;99.90;;;;;;5046279;28;20209;-76
2022/04/02 04:48:20;;;;;;;6.35;3.20;;;2.60;99.90;;;;;;5049296;28;20214;-76
2022/04/02 04:51:06;;;;;;;3.63;3.30;;;2.50;99.90;;;;;;5048484;28;20756;-76
2022/04/02 04:53:53;;;;;;;6.90;3.33;;;2.50;99.90;;;;;;5044055;28;20220;-75
2022/04/02 04:56:38;;;;;;;4.72;3.58;;;2.50;99.90;;;;;;5050173;28;20336;-76
2022/04/02 04:59:25;;;;;;;4.53;3.40;;;2.40;99.90;;;;;;5049815;28;20265;-76
2022/04/02 05:02:12;;;;;;;4.18;3.60;;;2.40;99.90;;;;;;5047378;28;20197;-74
2022/04/02 05:04:57;;;;;;;4.22;3.75;;;2.40;99.90;;;;;;5044753;28;20244;-74
2022/04/02 05:07:43;;;;;;;3.70;3.33;;;2.50;99.90;;;;;;5048504;28;20683;-76
2022/04/02 05:10:29;;;;;;;4.38;3.60;;;2.50;99.90;;;;;;5054234;22;20305;-71
2022/04/02 05:13:15;;;;;;;5.55;4.13;;;2.50;99.90;;;;;;5029707;28;20206;-71
2022/04/02 05:16:03;;;;;;;6.45;4.07;;;2.50;99.90;;;;;;5030774;28;20219;-71
2022/04/02 05:18:49;;;;;;;8.77;3.63;;;2.40;99.90;;;;;;5032411;28;20292;-71
2022/04/02 05:21:35;;;;;;;6.45;4.13;;;2.40;99.90;;;;;;5032360;28;20221;-71
2022/04/02 05:24:21;;;;;;;3.92;3.45;;;2.40;99.90;;;;;;5027563;28;20283;-71
2022/04/02 05:27:07;;;;;;;4.60;3.88;;;2.40;99.90;;;;;;5032788;28;20206;-72
2022/04/02 05:29:53;;;;;;;5.47;3.85;;;2.40;99.90;;;;;;5029547;28;20751;-71
2022/04/02 05:32:40;;;;;;;4.13;3.40;;;2.40;99.90;;;;;;5029242;28;20678;-71
2022/04/02 05:35:26;;;;;;;5.32;4.20;;;2.40;99.90;;;;;;5028196;28;20254;-71
2022/04/02 05:38:11;;;;;;;5.85;3.45;;;2.40;99.90;;;;;;5030457;28;20212;-71
2022/04/02 05:40:57;;;;;;;4.85;3.90;;;2.40;99.90;;;;;;5033577;28;20236;-71
2022/04/02 05:43:42;;;;;;;4.28;3.65;;;2.40;99.90;;;;;;5022503;28;20713;-71
2022/04/02 05:46:28;;;;;;;4.10;3.42;;;2.40;99.90;;;;;;5027845;28;20252;-71
2022/04/02 05:49:15;;;;;;;5.28;3.97;;;2.40;99.90;;;;;;5031292;28;20215;-71
2022/04/02 05:52:01;;;;;;;4.65;3.88;;;2.30;99.90;;;;;;5027832;28;20204;-71
2022/04/02 05:54:47;;;;;;;7.90;4.82;;;2.40;99.90;;;;;;5024912;28;20202;-71
2022/04/02 05:57:32;;;;;;;6.45;3.90;;;2.40;99.90;;;;;;5032221;28;20207;-71
2022/04/02 06:00:18;;;;;;;5.60;4.03;;;2.40;99.90;;;;;;5029752;28;20227;-71
2022/04/02 06:03:04;;;;;;;6.10;3.80;;;2.40;99.90;;;;;;5025919;28;20694;-71
2022/04/02 06:05:52;;;;;;;7.13;4.05;;;2.50;99.90;;;;;;5027013;28;20212;-71
2022/04/02 06:08:37;;;;;;;4.88;4.10;;;2.50;99.90;;;;;;5030285;28;20200;-71
2022/04/02 06:11:23;;;;;;;4.75;3.75;;;2.50;99.90;;;;;;5030822;28;20369;-71
2022/04/02 06:14:10;;;;;;;6.57;3.70;;;2.40;99.90;;;;;;5025295;28;20211;-71
2022/04/02 06:16:55;;;;;;;8.65;4.40;;;2.50;99.90;;;;;;5028176;28;20685;-71
2022/04/02 06:19:41;;;;;;;4.78;4.28;;;2.50;99.90;;;;;;5027861;28;20202;-71
2022/04/02 06:22:29;;;;;;;4.93;3.85;;;2.50;99.90;;;;;;5029591;28;20728;-71
2022/04/02 06:25:15;;;;;;;4.03;3.63;;;2.60;99.90;;;;;;5030887;28;20257;-71
2022/04/02 06:28:00;;;;;;;5.05;3.78;;;2.50;99.90;;;;;;5026684;28;20200;-73
2022/04/02 06:30:46;;;;;;;5.70;4.10;;;2.60;99.90;;;;;;5032164;28;20712;-71
2022/04/02 06:33:32;;;;;;;5.90;4.55;;;2.60;99.90;;;;;;5027042;28;20333;-70
2022/04/02 06:36:19;;;;;;;11.13;4.22;;;2.60;99.90;;;;;;5030501;28;20211;-72
2022/04/02 06:39:06;;;;;;;6.03;4.20;;;2.50;99.90;;;;;;5026168;28;20210;-71
2022/04/02 06:41:52;;;;;;;7.30;4.65;;;2.50;99.90;;;;;;5024922;28;20236;-71
2022/04/02 06:44:38;;;;;;;9.15;4.40;;;2.50;99.90;;;;;;5029981;28;20569;-71
2022/04/02 06:47:27;;;;;;;5.85;4.65;;;2.50;99.90;;;;;;5027201;28;20203;-71
2022/04/02 06:50:14;;;;;;;5.90;4.80;;;2.50;99.90;;;;;;5029682;28;20226;-72
2022/04/02 06:53:00;;;;;;;6.47;5.10;;;2.50;99.90;;;;;;5024201;28;20211;-72
2022/04/02 06:55:47;;;;;;;7.18;4.70;;;2.60;99.90;;;;;;5030524;28;20883;-72
2022/04/02 06:58:36;;;;;;;5.68;4.30;;;2.60;99.90;;;;;;5027122;28;20265;-72
2022/04/02 07:01:21;;;;;;;5.60;4.25;;;2.50;99.90;;;;;;5023720;28;20301;-72
2022/04/02 07:04:07;;;;;;;6.25;4.80;;;2.60;99.90;;;;;;5026867;28;20594;-72
2022/04/02 07:06:53;;;;;;;5.32;4.35;;;2.70;99.90;;;;;;5034034;28;20455;-72
2022/04/02 07:09:38;;;;;;;6.90;3.97;;;2.60;99.90;;;;;;5028651;28;20685;-71
2022/04/02 07:12:26;;;;;;;4.95;4.35;;;2.60;99.90;;;;;;5025194;28;20220;-71
2022/04/02 07:15:11;;;;;;;7.38;4.40;;;2.60;99.90;;;;;;5024663;28;20195;-71
2022/04/02 07:17:57;;;;;;;4.50;3.58;;;2.60;99.90;;;;;;5032789;28;20262;-71
2022/04/02 07:20:43;;;;;;;4.90;4.10;;;2.60;99.90;;;;;;5027757;28;20211;-70
2022/04/02 07:23:30;;;;;;;7.45;4.45;;;2.60;99.90;;;;;;5031437;28;20282;-71
2022/04/02 07:26:17;;;;;;;5.22;4.70;;;2.60;99.90;;;;;;5026708;28;20346;-70
2022/04/02 07:29:04;;;;;;;4.72;3.95;;;2.70;99.90;;;;;;5027969;28;20884;-71
2022/04/02 07:31:50;;;;;;;9.63;4.60;;;2.70;99.90;;;;;;5027421;28;20315;-70
2022/04/02 07:34:36;;;;;;;6.10;5.43;;;2.80;99.90;;;;;;5031991;28;20313;-71
2022/04/02 07:37:29;;;;;;;13.65;4.45;;;2.80;99.90;;;;;;5030272;28;20201;-71
2022/04/02 07:40:19;;;;;;;5.53;4.38;;;2.80;99.90;;;;;;5027296;28;20221;-70
2022/04/02 07:43:13;;;;;;;7.50;4.57;;;2.80;99.90;;;;;;5033085;28;20287;-70
2022/04/02 07:46:06;;;;;;;9.05;4.68;;;2.80;99.90;;;;;;5029774;28;20692;-71
2022/04/02 07:48:53;;;;;;;10.68;5.30;;;2.80;99.90;;;;;;5034088;28;20330;-70
2022/04/02 07:51:40;;;;;;;4.47;4.07;;;2.90;99.90;;;;;;5030223;28;20264;-71
2022/04/02 07:54:26;;;;;;;6.38;4.32;;;2.90;99.90;;;;;;5031034;28;20204;-71
2022/04/02 07:57:14;;;;;;;7.10;4.38;;;3.00;99.90;;;;;;5031861;28;20278;-71
2022/04/02 08:00:03;;;;;;;4.28;3.63;;;3.00;99.90;;;;;;5026426;28;20300;-71
2022/04/02 08:02:51;;;;;;;5.70;4.45;;;2.90;99.90;;;;;;5028900;28;20662;-71
2022/04/02 08:05:37;;;;;;;5.85;4.65;;;2.90;99.90;;;;;;5035765;28;20202;-71
2022/04/02 08:08:25;;;;;;;7.72;4.28;;;2.90;99.90;;;;;;5028684;28;20199;-71
2022/04/02 08:11:12;;;;;;;7.80;5.10;;;3.00;99.90;;;;;;5026875;28;20243;-71
2022/04/02 08:13:58;;;;;;;9.07;4.57;;;3.10;99.90;;;;;;5025562;28;20206;-71
2022/04/02 08:16:45;;;;;;;8.57;4.57;;;3.00;99.90;;;;;;5030632;28;20204;-71
2022/04/02 08:19:34;;;;;;;6.03;4.72;;;3.10;99.90;;;;;;5033581;28;20211;-71
2022/04/02 08:22:19;;;;;;;6.88;4.32;;;3.10;99.90;;;;;;5031589;28;20711;-70
2022/04/02 08:25:06;;;;;;;6.50;4.70;;;3.10;99.90;;;;;;5033854;28;20281;-71
2022/04/02 08:28:02;;;;;;;6.50;4.85;;;3.10;99.90;;;;;;5031517;28;20211;-71
2022/04/02 08:30:51;;;;;;;13.27;5.40;;;3.10;99.90;;;;;;5031566;28;20294;-71
2022/04/02 08:33:46;;;;;;;6.07;4.40;;;3.10;99.90;;;;;;5036674;28;20203;-70
2022/04/02 08:36:40;;;;;;;13.25;4.72;;;3.10;99.90;;;;;;5032483;28;20647;-71
2022/04/02 08:39:36;;;;;;;7.25;4.40;;;3.20;99.90;;;;;;5025046;28;20741;-71
2022/04/02 08:42:56;;;;;;;7.43;4.43;;;3.20;99.90;;;;;;5033729;28;20691;-71
2022/04/02 08:45:55;;;;;;;5.07;4.25;;;3.20;99.90;;;;;;5031465;28;20239;-71
2022/04/02 08:48:55;;;;;;;7.43;4.95;;;3.20;99.90;;;;;;5030947;28;20201;-71
2022/04/02 08:51:45;;;;;;;4.88;3.97;;;3.20;99.90;;;;;;5030436;28;20330;-71
2022/04/02 08:54:39;;;;;;;11.82;4.55;;;3.10;99.90;;;;;;5033350;28;20200;-71
2022/04/02 08:57:29;;;;;;;10.13;5.93;;;3.10;99.90;;;;;;5031720;28;20209;-71
2022/04/02 09:00:23;;;;;;;6.60;4.95;;;3.10;99.90;;;;;;5023643;28;20792;-71
2022/04/02 09:03:42;;;;;;;7.57;4.45;;;3.10;99.90;;;;;;5040005;28;20471;-71
2022/04/02 09:07:15;;;;;;;5.05;4.25;;;3.20;99.90;;;;;;5030325;28;20758;-71
2022/04/02 09:10:36;;;;;;;6.60;4.20;;;3.20;99.90;;;;;;5004916;28;20372;-71
2022/04/02 09:14:12;;;;;;;6.57;4.60;;;3.20;99.90;;;;;;5033770;28;20207;-71
2022/04/02 09:17:04;;;;;;;7.00;5.10;;;3.20;99.90;;;;;;5029155;28;20195;-71
2022/04/02 09:20:09;;;;;;;4.90;4.32;;;3.30;99.90;;;;;;5025618;28;20283;-72
2022/04/02 09:23:09;;;;;;;7.43;5.47;;;3.30;99.90;;;;;;5027203;28;20700;-71
2022/04/02 09:26:40;;;;;;;7.20;5.47;;;3.30;99.90;;;;;;5033311;28;20257;-70
2022/04/02 09:29:29;;;;;;;18.05;6.28;;;3.30;99.90;;;;;;5023247;28;20344;-71
2022/04/02 09:33:13;;;;;;;4.85;4.40;;;3.40;99.90;;;;;;5036616;28;20677;-71
2022/04/02 09:36:16;;;;;;;5.72;4.60;;;3.40;99.90;;;;;;4986809;28;20734;-71
2022/04/02 09:39:07;;;;;;;6.25;4.85;;;3.40;99.90;;;;;;5025375;28;20280;-70
2022/04/02 09:42:21;;;;;;;4.93;4.43;;;3.40;99.90;;;;;;5025966;28;20234;-71
2022/04/02 09:45:10;;;;;;;8.57;4.90;;;3.40;99.90;;;;;;5027288;28;20699;-70
2022/04/02 09:48:07;;;;;;;7.10;4.90;;;3.40;99.90;;;;;;5034702;28;20258;-71
2022/04/02 09:50:56;;;;;;;6.13;4.85;;;3.40;99.90;;;;;;5030303;28;20810;-71
2022/04/02 09:53:59;;;;;;;13.90;5.25;;;3.40;99.90;;;;;;5030134;28;20208;-71
2022/04/02 09:56:52;;;;;;;6.75;5.53;;;3.40;99.90;;;;;;5030120;28;20214;-71
2022/04/02 10:00:03;;;;;;;8.98;5.15;;;3.40;99.90;;;;;;5029971;28;20204;-71
2022/04/02 10:03:04;;;;;;;7.15;5.93;;;3.50;99.90;;;;;;5033111;28;20294;-70
2022/04/02 10:06:08;;;;;;;13.50;5.45;;;3.50;99.90;;;;;;5031479;28;20277;-71
2022/04/02 10:09:06;;;;;;;6.80;5.43;;;3.60;99.90;;;;;;5026978;28;20332;-71
2022/04/02 10:11:53;;;;;;;6.75;5.95;;;3.60;99.90;;;;;;5027309;28;20303;-70
2022/04/02 10:14:42;;;;;;;7.30;5.25;;;3.60;99.90;;;;;;5027937;28;20324;-71
2022/04/02 10:17:29;;;;;;;7.25;5.85;;;3.70;99.90;;;;;;5026605;28;20208;-70
2022/04/02 10:20:23;;;;;;;9.52;5.95;;;3.60;99.90;;;;;;5029754;28;20719;-70
2022/04/02 10:23:13;;;;;;;11.50;4.85;;;3.70;99.90;;;;;;5027661;28;20301;-71
2022/04/02 10:26:07;;;;;;;7.57;4.88;;;3.60;99.90;;;;;;5032063;28;20260;-71
2022/04/02 10:28:54;;;;;;;6.50;5.30;;;3.60;99.90;;;;;;5027351;28;20553;-71
2022/04/02 10:31:48;;;;;;;14.65;6.32;;;3.70;99.90;;;;;;5031384;28;20228;-71
2022/04/02 10:34:43;;;;;;;8.10;6.70;;;3.60;99.90;;;;;;5029547;28;20679;-71
2022/04/02 10:37:38;;;;;;;10.43;7.03;;;3.60;99.90;;;;;;5031267;28;20565;-71
2022/04/02 10:40:26;;;;;;;13.25;6.28;;;3.70;99.90;;;;;;5029164;28;20357;-71
2022/04/02 10:43:24;;;;;;;9.95;6.70;;;3.60;99.90;;;;;;5033457;28;20696;-71
2022/04/02 10:46:09;;;;;;;9.25;6.18;;;3.70;99.90;;;;;;5030299;28;20261;-70
2022/04/02 10:48:57;;;;;;;7.47;6.40;;;3.80;99.90;;;;;;5026941;28;20206;-70
2022/04/02 10:51:44;;;;;;;7.97;5.93;;;3.90;99.90;;;;;;5027787;28;20225;-70
2022/04/02 10:54:31;;;;;;;7.63;6.28;;;4.10;99.90;;;;;;5028009;28;20208;-71
2022/04/02 10:57:18;;;;;;;9.63;6.68;;;4.20;99.90;;;;;;5029387;28;20205;-71
2022/04/02 11:00:07;;;;;;;9.75;6.40;;;4.30;99.90;;;;;;5030725;28;20224;-73
2022/04/02 11:03:02;;;;;;;9.52;6.50;;;4.30;99.90;;;;;;5030015;28;20217;-70
2022/04/02 11:05:48;;;;;;;11.48;6.90;;;4.30;99.90;;;;;;5032991;28;20674;-71
2022/04/02 11:08:34;;;;;;;11.10;6.60;;;4.30;99.90;;;;;;5024747;28;20208;-71
2022/04/02 11:11:24;;;;;;;11.23;6.60;;;4.40;99.90;;;;;;5033488;22;20236;-75
2022/04/02 11:14:10;;;;;;;9.20;6.25;;;4.50;99.90;;;;;;5019205;28;21136;-75
2022/04/02 11:16:56;;;;;;;8.52;6.47;;;4.50;99.90;;;;;;5012196;28;20202;-74
2022/04/02 11:19:57;;;;;;;13.23;6.05;;;4.40;99.90;;;;;;5009562;28;20209;-74
2022/04/02 11:22:59;;;;;;;8.80;5.57;;;4.40;99.90;;;;;;5004655;28;20214;-75
2022/04/02 11:25:49;;;;;;;8.82;6.60;;;4.30;99.90;;;;;;4992730;28;20452;-75
2022/04/02 11:28:47;;;;;;;8.85;5.70;;;4.30;99.90;;;;;;4983790;28;20202;-75
2022/04/02 11:31:35;;;;;;;7.95;6.43;;;4.30;99.90;;;;;;4997164;28;20222;-74
2022/04/02 11:34:24;;;;;;;10.52;6.90;;;4.40;99.90;;;;;;4991201;28;20254;-75
2022/04/02 11:37:13;;;;;;;13.82;6.63;;;4.40;99.90;;;;;;4989738;28;20249;-75
2022/04/02 11:40:04;;;;;;;8.18;6.50;;;4.40;99.90;;;;;;4992810;28;20222;-75
2022/04/02 11:42:51;;;;;;;9.40;6.47;;;4.40;99.90;;;;;;4985696;28;20228;-75
2022/04/02 11:45:41;;;;;;;9.07;6.63;;;4.30;99.90;;;;;;4990984;28;20572;-75
2022/04/02 11:48:32;;;;;;;8.70;6.22;;;4.20;99.90;;;;;;4987763;28;20203;-74
2022/04/02 11:51:20;;;;;;;8.52;5.95;;;4.20;99.90;;;;;;4991909;28;20229;-74
2022/04/02 11:54:08;;;;;;;10.82;6.85;;;4.30;99.90;;;;;;4992334;28;20210;-74
2022/04/02 11:57:07;;;;;;;9.00;5.45;;;4.30;99.90;;;;;;4987179;28;20694;-74
2022/04/02 11:59:55;;;;;;;8.80;5.88;;;4.30;99.90;;;;;;4986523;28;20294;-74
2022/04/02 12:02:43;;;;;;;8.30;6.43;;;4.30;99.90;;;;;;4987434;28;20257;-73
2022/04/02 12:05:37;;;;;;;8.20;5.30;;;4.40;99.90;;;;;;4998516;28;20208;-74
2022/04/02 12:08:28;;;;;;;11.77;7.30;;;4.40;99.90;;;;;;4989155;28;20209;-73
2022/04/02 12:11:25;;;;;;;8.60;6.20;;;4.40;99.90;;;;;;4987388;28;20364;-72
2022/04/02 12:14:11;;;;;;;8.20;5.97;;;4.50;99.90;;;;;;4989326;28;20209;-73
2022/04/02 12:17:00;;;;;;;9.18;6.43;;;4.40;99.90;;;;;;4986000;28;20217;-73
2022/04/02 12:19:52;;;;;;;8.70;6.18;;;4.40;99.90;;;;;;4989815;28;20213;-74
2022/04/02 12:22:40;;;;;;;8.15;6.03;;;4.40;99.90;;;;;;4991218;28;20722;-74
2022/04/02 12:25:27;;;;;;;10.50;6.55;;;4.40;99.90;;;;;;4990259;28;20210;-75
2022/04/02 12:28:17;;;;;;;10.83;7.00;;;4.30;99.90;;;;;;4990603;28;20688;-75
2022/04/02 12:31:06;;;;;;;9.90;6.10;;;4.30;99.90;;;;;;4987717;28;20468;-75
2022/04/02 12:33:52;;;;;;;9.15;6.18;;;4.30;99.90;;;;;;4988140;28;20198;-73
2022/04/02 12:36:41;;;;;;;14.27;6.70;;;4.30;99.90;;;;;;4988630;28;20229;-74
2022/04/02 12:39:27;;;;;;;9.40;5.80;;;4.30;99.90;;;;;;4990473;28;20446;-74
2022/04/02 12:42:14;;;;;;;9.27;6.30;;;4.30;99.90;;;;;;4996654;28;20241;-74
2022/04/02 12:45:06;;;;;;;7.40;5.90;;;4.30;99.90;;;;;;4988265;28;20342;-75
2022/04/02 12:48:01;;;;;;;7.72;6.15;;;4.30;99.90;;;;;;4987147;28;20230;-75
2022/04/02 12:50:52;;;;;;;6.60;5.90;;;4.20;99.90;;;;;;4991050;28;20303;-75
2022/04/02 12:53:41;;;;;;;8.25;5.20;;;4.20;99.90;;;;;;4995800;28;20238;-76
2022/04/02 12:56:29;;;;;;;7.30;5.53;;;4.30;99.90;;;;;;4983048;28;20706;-75
2022/04/02 12:59:19;;;;;;;6.40;5.43;;;4.30;99.90;;;;;;4996966;28;20328;-75
2022/04/02 13:02:06;;;;;;;10.07;6.35;;;4.50;99.90;;;;;;4991306;28;20770;-75
2022/04/02 13:04:54;;;;;;;11.38;6.03;;;4.50;99.90;;;;;;5000096;28;20562;-75
2022/04/02 13:07:40;;;;;;;6.53;5.63;;;4.50;99.90;;;;;;4988536;28;20716;-75
2022/04/02 13:10:29;;;;;;;9.00;5.38;;;4.40;99.90;;;;;;5002095;28;20237;-75
2022/04/02 13:13:17;;;;;;;8.13;5.28;;;4.50;99.90;;;;;;5002396;28;20274;-76
2022/04/02 13:16:03;;;;;;;10.15;5.70;;;4.60;99.90;;;;;;4996166;28;20210;-76
2022/04/02 13:22:02;;;;;;;7.45;5.60;;;4.70;99.90;;;;;;5006290;28;20224;-76
2022/04/02 13:24:58;;;;;;;8.13;5.63;;;4.80;99.90;;;;;;4993117;28;20206;-75
2022/04/02 13:28:12;;;;;;;7.90;5.65;;;5.00;99.90;;;;;;5001625;28;20211;-76
2022/04/02 13:30:59;;;;;;;8.38;5.40;;;5.00;99.90;;;;;;4996757;28;20222;-75
2022/04/02 13:34:07;;;;;;;10.83;5.87;;;5.10;99.90;;;;;;5000763;28;20206;-74
2022/04/02 13:37:11;;;;;;;8.00;5.88;;;5.10;99.90;;;;;;4986109;28;21384;-76
2022/04/02 13:40:02;;;;;;;9.67;4.97;;;5.10;99.90;;;;;;4994255;28;20198;-75
2022/04/02 13:42:54;;;;;;;10.20;5.20;;;5.10;99.90;;;;;;4991504;28;20437;-74
2022/04/02 13:45:43;;;;;;;6.30;4.47;;;5.30;99.90;;;;;;4988916;28;20315;-75
2022/04/02 13:48:29;;;;;;;6.27;4.30;;;5.40;99.90;;;;;;4992044;28;20442;-76
2022/04/02 13:51:15;;;;;;;14.65;5.50;;;5.40;99.90;;;;;;4981673;28;20518;-75
2022/04/02 13:54:06;;;;;;;7.70;5.10;;;5.40;97.20;;;;;;4989493;28;20206;-76
2022/04/02 13:57:02;;;;;;;9.30;7.30;;;5.40;96.40;;;;;;4997770;28;20449;-75
2022/04/02 14:00:05;;;;;;;10.00;4.77;;;5.30;96.50;;;;;;4994848;28;20450;-72
2022/04/02 14:02:53;;;;;;;9.73;5.80;;;5.10;95.90;;;;;;4993850;28;20528;-74
2022/04/02 14:05:41;;;;;;;10.57;5.40;;;5.00;96.60;;;;;;4991804;28;20497;-74
2022/04/02 14:08:34;;;;;;;6.25;4.60;;;5.00;97.50;;;;;;5003441;28;20958;-75
2022/04/02 14:11:21;;;;;;;8.03;5.00;;;5.00;96.50;;;;;;4996012;28;20234;-75
2022/04/02 14:14:25;;;;;;;15.33;4.70;;;5.10;96.20;;;;;;4994307;28;20449;-73
2022/04/02 14:17:16;;;;;;;6.80;5.90;;;5.00;95.80;;;;;;4995122;28;20469;-75
2022/04/02 14:20:07;;;;;;;7.03;6.23;;;5.00;95.80;;;;;;4989288;28;20954;-75
2022/04/02 14:23:04;;;;;;;7.83;5.27;;;5.10;97.60;;;;;;4995707;28;20835;-76
2022/04/02 14:26:22;;;;;;;9.87;7.50;;;5.10;97.60;;;;;;4989628;28;20463;-76
2022/04/02 14:29:25;;;;;;;7.83;4.70;;;5.20;97.10;;;;;;4996171;28;20450;-74
2022/04/02 14:32:41;;;;;;;6.22;4.38;;;5.20;95.80;;;;;;4996836;28;20983;-74
2022/04/02 14:36:01;;;;;;;5.83;4.00;;;5.20;96.30;;;;;;4992218;28;20212;-75
2022/04/02 14:39:23;;;;;;;9.30;4.80;;;5.20;95.40;;;;;;4992619;28;20447;-76
2022/04/02 14:42:10;;;;;;;7.80;4.23;;;5.20;95.30;;;;;;4995891;28;20465;-74
2022/04/02 14:45:37;;;;;;;8.18;4.57;;;5.30;95.60;;;;;;4982862;28;20521;-75
2022/04/02 14:48:58;;;;;;;5.95;4.40;;;5.30;92.50;;;;;;4989790;28;20205;-76
2022/04/02 14:52:24;;;;;;;5.13;4.20;;;5.30;93.00;;;;;;4996387;28;20257;-76
2022/04/02 14:56:01;;;;;;;7.57;4.27;;;5.40;92.50;;;;;;4993528;28;20978;-76
2022/04/02 14:59:26;;;;;;;12.07;4.50;;;5.30;93.40;;;;;;4992168;28;20509;-76
2022/04/02 15:02:41;;;;;;;10.77;4.72;;;5.30;93.80;;;;;;4995892;28;20450;-76
2022/04/02 15:05:37;;;;;;;9.07;5.20;;;5.20;94.60;;;;;;4990862;28;20203;-76